sensor_id;sensor_type;location;lat;lon;timestamp;P1;durP1;ratioP1;P2;durP2;ratioP2
14738;SDS011;7461;52.440;13.540;2024-01-15T00:01:00;15.52;;;14.23;;
14738;SDS011;7461;52.440;13.540;2024-01-15T00:03:28;15.55;;;14.35;;
14738;SDS011;7461;52.440;13.540;2024-01-15T00:05:56;16.05;;;14.77;;
14738;SDS011;7461;52.440;13.540;2024-01-15T00:08:24;14.95;;;13.95;;
14738;SDS011;7461;52.440;13.540;2024-01-15T00:10:52;16.35;;;14.93;;
14738;SDS011;7461;52.440;13.540;2024-01-15T00:13:19;15.90;;;14.52;;
14738;SDS011;7461;52.440;13.540;2024-01-15T00:15:46;14.07;;;12.88;;
14738;SDS011;7461;52.440;13.540;2024-01-15T00:18:14;15.73;;;14.52;;
14738;SDS011;7461;52.440;13.540;2024-01-15T00:20:41;14.32;;;13.10;;
14738;SDS011;7461;52.440;13.540;2024-01-15T00:23:08;16.75;;;15.35;;
14738;SDS011;7461;52.440;13.540;2024-01-15T00:25:37;14.52;;;13.45;;
14738;SDS011;7461;52.440;13.540;2024-01-15T00:28:05;16.23;;;14.65;;
14738;SDS011;7461;52.440;13.540;2024-01-15T00:30:32;14.55;;;13.48;;
14738;SDS011;7461;52.440;13.540;2024-01-15T00:32:59;17.35;;;15.65;;
14738;SDS011;7461;52.440;13.540;2024-01-15T00:35:27;16.27;;;14.73;;
14738;SDS011;7461;52.440;13.540;2024-01-15T00:37:54;17.80;;;15.40;;
14738;SDS011;7461;52.440;13.540;2024-01-15T00:40:21;13.73;;;12.52;;
14738;SDS011;7461;52.440;13.540;2024-01-15T00:42:51;16.08;;;14.77;;
14738;SDS011;7461;52.440;13.540;2024-01-15T00:45:19;14.60;;;13.35;;
14738;SDS011;7461;52.440;13.540;2024-01-15T00:47:46;15.98;;;14.57;;
14738;SDS011;7461;52.440;13.540;2024-01-15T00:50:14;14.45;;;13.10;;
14738;SDS011;7461;52.440;13.540;2024-01-15T00:52:42;15.27;;;13.80;;
14738;SDS011;7461;52.440;13.540;2024-01-15T00:55:09;16.08;;;14.50;;
14738;SDS011;7461;52.440;13.540;2024-01-15T00:57:37;15.27;;;13.98;;
14738;SDS011;7461;52.440;13.540;2024-01-15T01:00:06;17.70;;;15.82;;
14738;SDS011;7461;52.440;13.540;2024-01-15T01:02:34;16.55;;;15.07;;
14738;SDS011;7461;52.440;13.540;2024-01-15T01:05:01;17.23;;;15.55;;
14738;SDS011;7461;52.440;13.540;2024-01-15T01:07:29;15.90;;;14.50;;
14738;SDS011;7461;52.440;13.540;2024-01-15T01:09:56;17.10;;;15.60;;
14738;SDS011;7461;52.440;13.540;2024-01-15T01:12:24;16.05;;;14.77;;
14738;SDS011;7461;52.440;13.540;2024-01-15T01:14:51;15.90;;;14.43;;
14738;SDS011;7461;52.440;13.540;2024-01-15T01:17:20;15.60;;;14.10;;
14738;SDS011;7461;52.440;13.540;2024-01-15T01:19:47;16.00;;;14.60;;
14738;SDS011;7461;52.440;13.540;2024-01-15T01:22:15;14.65;;;13.45;;
14738;SDS011;7461;52.440;13.540;2024-01-15T01:24:42;19.40;;;15.32;;
14738;SDS011;7461;52.440;13.540;2024-01-15T01:27:09;16.10;;;14.60;;
14738;SDS011;7461;52.440;13.540;2024-01-15T01:29:37;16.17;;;14.70;;
14738;SDS011;7461;52.440;13.540;2024-01-15T01:32:04;17.55;;;15.38;;
14738;SDS011;7461;52.440;13.540;2024-01-15T01:34:39;15.10;;;13.68;;
14738;SDS011;7461;52.440;13.540;2024-01-15T01:37:07;16.30;;;14.90;;
14738;SDS011;7461;52.440;13.540;2024-01-15T01:39:34;15.00;;;13.57;;
14738;SDS011;7461;52.440;13.540;2024-01-15T01:42:02;18.10;;;16.48;;
14738;SDS011;7461;52.440;13.540;2024-01-15T01:44:29;17.65;;;15.77;;
14738;SDS011;7461;52.440;13.540;2024-01-15T01:46:57;16.85;;;15.55;;
14738;SDS011;7461;52.440;13.540;2024-01-15T01:49:25;15.57;;;13.98;;
14738;SDS011;7461;52.440;13.540;2024-01-15T01:51:55;14.25;;;12.90;;
14738;SDS011;7461;52.440;13.540;2024-01-15T01:54:24;15.70;;;14.15;;
14738;SDS011;7461;52.440;13.540;2024-01-15T01:56:52;17.13;;;15.50;;
14738;SDS011;7461;52.440;13.540;2024-01-15T01:59:19;16.83;;;14.82;;
14738;SDS011;7461;52.440;13.540;2024-01-15T02:01:48;14.35;;;13.00;;
14738;SDS011;7461;52.440;13.540;2024-01-15T02:04:16;17.70;;;16.00;;
14738;SDS011;7461;52.440;13.540;2024-01-15T02:06:44;17.25;;;15.73;;
14738;SDS011;7461;52.440;13.540;2024-01-15T02:09:13;19.92;;;18.10;;
14738;SDS011;7461;52.440;13.540;2024-01-15T02:11:41;16.73;;;15.20;;
14738;SDS011;7461;52.440;13.540;2024-01-15T02:14:08;18.60;;;16.80;;
14738;SDS011;7461;52.440;13.540;2024-01-15T02:16:42;16.95;;;15.25;;
14738;SDS011;7461;52.440;13.540;2024-01-15T02:19:14;16.27;;;14.68;;
14738;SDS011;7461;52.440;13.540;2024-01-15T02:21:42;18.58;;;16.77;;
14738;SDS011;7461;52.440;13.540;2024-01-15T02:24:11;17.48;;;15.77;;
14738;SDS011;7461;52.440;13.540;2024-01-15T02:26:38;16.15;;;14.82;;
14738;SDS011;7461;52.440;13.540;2024-01-15T02:29:07;15.60;;;14.30;;
14738;SDS011;7461;52.440;13.540;2024-01-15T02:31:36;15.93;;;14.40;;
14738;SDS011;7461;52.440;13.540;2024-01-15T02:34:03;17.38;;;15.60;;
14738;SDS011;7461;52.440;13.540;2024-01-15T02:36:30;18.00;;;16.40;;
14738;SDS011;7461;52.440;13.540;2024-01-15T02:38:58;17.02;;;15.63;;
14738;SDS011;7461;52.440;13.540;2024-01-15T02:41:27;20.83;;;14.93;;
14738;SDS011;7461;52.440;13.540;2024-01-15T02:43:54;17.13;;;15.38;;
14738;SDS011;7461;52.440;13.540;2024-01-15T02:46:22;14.63;;;13.18;;
14738;SDS011;7461;52.440;13.540;2024-01-15T02:48:49;13.75;;;12.48;;
14738;SDS011;7461;52.440;13.540;2024-01-15T02:51:16;16.17;;;13.45;;
14738;SDS011;7461;52.440;13.540;2024-01-15T02:53:44;15.85;;;14.50;;
14738;SDS011;7461;52.440;13.540;2024-01-15T02:56:11;12.93;;;11.85;;
14738;SDS011;7461;52.440;13.540;2024-01-15T02:58:40;13.38;;;12.18;;
14738;SDS011;7461;52.440;13.540;2024-01-15T03:01:08;13.55;;;12.35;;
14738;SDS011;7461;52.440;13.540;2024-01-15T03:03:35;13.07;;;11.98;;
14738;SDS011;7461;52.440;13.540;2024-01-15T03:06:13;14.15;;;13.05;;
14738;SDS011;7461;52.440;13.540;2024-01-15T03:08:55;16.25;;;13.20;;
14738;SDS011;7461;52.440;13.540;2024-01-15T03:11:25;14.90;;;13.50;;
14738;SDS011;7461;52.440;13.540;2024-01-15T03:14:08;15.35;;;12.10;;
14738;SDS011;7461;52.440;13.540;2024-01-15T03:16:54;14.57;;;12.77;;
14738;SDS011;7461;52.440;13.540;2024-01-15T03:19:26;15.50;;;13.95;;
14738;SDS011;7461;52.440;13.540;2024-01-15T03:22:00;15.50;;;14.20;;
14738;SDS011;7461;52.440;13.540;2024-01-15T03:24:38;14.85;;;13.35;;
14738;SDS011;7461;52.440;13.540;2024-01-15T03:27:17;12.18;;;11.13;;
14738;SDS011;7461;52.440;13.540;2024-01-15T03:29:59;12.98;;;11.60;;
14738;SDS011;7461;52.440;13.540;2024-01-15T03:32:35;13.23;;;11.93;;
14738;SDS011;7461;52.440;13.540;2024-01-15T03:35:10;13.10;;;12.00;;
14738;SDS011;7461;52.440;13.540;2024-01-15T03:37:53;13.25;;;11.90;;
14738;SDS011;7461;52.440;13.540;2024-01-15T03:40:22;13.80;;;12.45;;
14738;SDS011;7461;52.440;13.540;2024-01-15T03:42:53;13.52;;;11.73;;
14738;SDS011;7461;52.440;13.540;2024-01-15T03:45:37;11.55;;;10.55;;
14738;SDS011;7461;52.440;13.540;2024-01-15T03:48:06;12.55;;;11.55;;
14738;SDS011;7461;52.440;13.540;2024-01-15T03:51:02;13.27;;;12.07;;
14738;SDS011;7461;52.440;13.540;2024-01-15T03:53:49;11.40;;;9.85;;
14738;SDS011;7461;52.440;13.540;2024-01-15T03:56:40;10.88;;;9.80;;
14738;SDS011;7461;52.440;13.540;2024-01-15T04:11:24;10.23;;;7.65;;
14738;SDS011;7461;52.440;13.540;2024-01-15T04:13:56;13.63;;;10.07;;
14738;SDS011;7461;52.440;13.540;2024-01-15T04:16:29;11.65;;;10.40;;
14738;SDS011;7461;52.440;13.540;2024-01-15T04:19:15;10.00;;;9.00;;
14738;SDS011;7461;52.440;13.540;2024-01-15T04:22:34;11.02;;;9.93;;
14738;SDS011;7461;52.440;13.540;2024-01-15T04:25:13;11.07;;;8.48;;
14738;SDS011;7461;52.440;13.540;2024-01-15T04:33:24;10.35;;;8.98;;
14738;SDS011;7461;52.440;13.540;2024-01-15T04:36:11;11.40;;;8.63;;
14738;SDS011;7461;52.440;13.540;2024-01-15T04:38:53;8.50;;;7.78;;
14738;SDS011;7461;52.440;13.540;2024-01-15T04:41:24;7.95;;;7.18;;
14738;SDS011;7461;52.440;13.540;2024-01-15T04:43:56;12.10;;;8.50;;
14738;SDS011;7461;52.440;13.540;2024-01-15T04:46:27;8.32;;;7.57;;
14738;SDS011;7461;52.440;13.540;2024-01-15T04:49:03;6.72;;;6.22;;
14738;SDS011;7461;52.440;13.540;2024-01-15T04:51:33;8.88;;;6.63;;
14738;SDS011;7461;52.440;13.540;2024-01-15T04:54:21;11.55;;;9.30;;
14738;SDS011;7461;52.440;13.540;2024-01-15T04:56:49;8.85;;;6.20;;
14738;SDS011;7461;52.440;13.540;2024-01-15T04:59:19;11.25;;;5.95;;
14738;SDS011;7461;52.440;13.540;2024-01-15T05:02:21;11.43;;;7.50;;
14738;SDS011;7461;52.440;13.540;2024-01-15T05:04:59;7.10;;;6.40;;
14738;SDS011;7461;52.440;13.540;2024-01-15T05:10:26;6.25;;;5.75;;
14738;SDS011;7461;52.440;13.540;2024-01-15T05:13:09;7.70;;;4.80;;
14738;SDS011;7461;52.440;13.540;2024-01-15T05:15:44;8.88;;;6.07;;
14738;SDS011;7461;52.440;13.540;2024-01-15T05:18:26;9.30;;;8.27;;
14738;SDS011;7461;52.440;13.540;2024-01-15T05:21:16;6.68;;;5.90;;
14738;SDS011;7461;52.440;13.540;2024-01-15T05:24:03;9.27;;;5.13;;
14738;SDS011;7461;52.440;13.540;2024-01-15T05:26:50;7.10;;;5.22;;
14738;SDS011;7461;52.440;13.540;2024-01-15T05:29:18;6.07;;;5.20;;
14738;SDS011;7461;52.440;13.540;2024-01-15T05:31:45;7.65;;;4.95;;
14738;SDS011;7461;52.440;13.540;2024-01-15T05:34:12;10.43;;;6.65;;
14738;SDS011;7461;52.440;13.540;2024-01-15T05:36:43;10.60;;;6.05;;
14738;SDS011;7461;52.440;13.540;2024-01-15T05:42:29;7.25;;;4.68;;
14738;SDS011;7461;52.440;13.540;2024-01-15T05:45:10;6.82;;;5.10;;
14738;SDS011;7461;52.440;13.540;2024-01-15T05:47:41;9.15;;;4.63;;
14738;SDS011;7461;52.440;13.540;2024-01-15T05:50:09;8.70;;;5.55;;
14738;SDS011;7461;52.440;13.540;2024-01-15T05:52:51;7.35;;;6.07;;
14738;SDS011;7461;52.440;13.540;2024-01-15T05:55:35;8.60;;;5.13;;
14738;SDS011;7461;52.440;13.540;2024-01-15T06:01:38;5.38;;;4.88;;
14738;SDS011;7461;52.440;13.540;2024-01-15T06:04:33;13.30;;;6.35;;
14738;SDS011;7461;52.440;13.540;2024-01-15T06:07:08;11.77;;;5.18;;
14738;SDS011;7461;52.440;13.540;2024-01-15T06:22:06;6.78;;;4.97;;
14738;SDS011;7461;52.440;13.540;2024-01-15T06:27:54;8.30;;;4.85;;
14738;SDS011;7461;52.440;13.540;2024-01-15T06:30:46;4.93;;;3.13;;
14738;SDS011;7461;52.440;13.540;2024-01-15T06:33:27;6.10;;;4.45;;
14738;SDS011;7461;52.440;13.540;2024-01-15T06:36:13;11.73;;;3.63;;
14738;SDS011;7461;52.440;13.540;2024-01-15T06:45:18;4.53;;;3.17;;
14738;SDS011;7461;52.440;13.540;2024-01-15T06:47:55;4.70;;;4.10;;
14738;SDS011;7461;52.440;13.540;2024-01-15T06:50:39;10.45;;;3.95;;
14738;SDS011;7461;52.440;13.540;2024-01-15T06:53:25;10.60;;;4.88;;
14738;SDS011;7461;52.440;13.540;2024-01-15T06:55:55;8.85;;;3.20;;
14738;SDS011;7461;52.440;13.540;2024-01-15T06:58:33;9.57;;;3.72;;
14738;SDS011;7461;52.440;13.540;2024-01-15T07:01:25;6.65;;;3.28;;
14738;SDS011;7461;52.440;13.540;2024-01-15T07:04:23;8.32;;;3.25;;
14738;SDS011;7461;52.440;13.540;2024-01-15T07:07:20;8.45;;;2.65;;
14738;SDS011;7461;52.440;13.540;2024-01-15T07:10:11;5.55;;;2.22;;
14738;SDS011;7461;52.440;13.540;2024-01-15T07:14:27;12.93;;;3.15;;
14738;SDS011;7461;52.440;13.540;2024-01-15T07:29:02;6.40;;;3.25;;
14738;SDS011;7461;52.440;13.540;2024-01-15T07:36:01;7.18;;;3.45;;
14738;SDS011;7461;52.440;13.540;2024-01-15T07:44:01;6.95;;;2.40;;
14738;SDS011;7461;52.440;13.540;2024-01-15T07:46:44;6.60;;;2.33;;
14738;SDS011;7461;52.440;13.540;2024-01-15T07:49:38;5.22;;;2.30;;
14738;SDS011;7461;52.440;13.540;2024-01-15T07:52:34;5.55;;;2.45;;
14738;SDS011;7461;52.440;13.540;2024-01-15T07:55:22;3.00;;;2.20;;
14738;SDS011;7461;52.440;13.540;2024-01-15T07:58:13;6.03;;;2.63;;
14738;SDS011;7461;52.440;13.540;2024-01-15T11:13:56;3.55;;;2.33;;
14738;SDS011;7461;52.440;13.540;2024-01-15T11:19:36;4.85;;;2.67;;
14738;SDS011;7461;52.440;13.540;2024-01-15T11:22:06;4.80;;;2.22;;
14738;SDS011;7461;52.440;13.540;2024-01-15T11:24:37;4.68;;;1.30;;
14738;SDS011;7461;52.440;13.540;2024-01-15T11:27:08;4.32;;;2.25;;
14738;SDS011;7461;52.440;13.540;2024-01-15T11:45:28;1.55;;;1.45;;
14738;SDS011;7461;52.440;13.540;2024-01-15T11:51:49;4.97;;;2.17;;
14738;SDS011;7461;52.440;13.540;2024-01-15T11:54:39;1.83;;;1.67;;
14738;SDS011;7461;52.440;13.540;2024-01-15T11:57:41;2.25;;;1.15;;
14738;SDS011;7461;52.440;13.540;2024-01-15T12:00:37;2.80;;;2.47;;
14738;SDS011;7461;52.440;13.540;2024-01-15T12:03:34;2.33;;;2.08;;
14738;SDS011;7461;52.440;13.540;2024-01-15T12:06:36;3.65;;;2.50;;
14738;SDS011;7461;52.440;13.540;2024-01-15T12:11:57;1.60;;;1.50;;
14738;SDS011;7461;52.440;13.540;2024-01-15T12:14:50;2.55;;;2.15;;
14738;SDS011;7461;52.440;13.540;2024-01-15T12:42:15;2.70;;;2.50;;
14738;SDS011;7461;52.440;13.540;2024-01-15T12:48:21;2.60;;;2.38;;
14738;SDS011;7461;52.440;13.540;2024-01-15T12:51:05;2.13;;;1.85;;
14738;SDS011;7461;52.440;13.540;2024-01-15T12:57:12;1.98;;;1.08;;
14738;SDS011;7461;52.440;13.540;2024-01-15T16:34:28;3.65;;;2.55;;
14738;SDS011;7461;52.440;13.540;2024-01-15T16:36:56;2.97;;;2.78;;
14738;SDS011;7461;52.440;13.540;2024-01-15T16:39:31;2.97;;;2.75;;
14738;SDS011;7461;52.440;13.540;2024-01-15T16:42:09;4.10;;;2.67;;
14738;SDS011;7461;52.440;13.540;2024-01-15T16:44:39;3.25;;;2.47;;
14738;SDS011;7461;52.440;13.540;2024-01-15T16:47:07;3.47;;;2.90;;
14738;SDS011;7461;52.440;13.540;2024-01-15T16:52:34;5.72;;;3.78;;
14738;SDS011;7461;52.440;13.540;2024-01-15T16:55:01;4.38;;;3.45;;
14738;SDS011;7461;52.440;13.540;2024-01-15T16:57:31;8.57;;;3.88;;
14738;SDS011;7461;52.440;13.540;2024-01-15T16:59:59;2.55;;;2.42;;
14738;SDS011;7461;52.440;13.540;2024-01-15T17:02:29;3.78;;;3.47;;
14738;SDS011;7461;52.440;13.540;2024-01-15T17:05:03;5.88;;;3.67;;
14738;SDS011;7461;52.440;13.540;2024-01-15T17:07:39;4.57;;;4.18;;
14738;SDS011;7461;52.440;13.540;2024-01-15T17:10:07;4.32;;;3.92;;
14738;SDS011;7461;52.440;13.540;2024-01-15T17:12:36;5.65;;;3.95;;
14738;SDS011;7461;52.440;13.540;2024-01-15T17:15:11;6.55;;;4.00;;
14738;SDS011;7461;52.440;13.540;2024-01-15T17:17:51;7.82;;;4.25;;
14738;SDS011;7461;52.440;13.540;2024-01-15T17:20:27;4.78;;;4.07;;
14738;SDS011;7461;52.440;13.540;2024-01-15T17:23:09;5.18;;;4.68;;
14738;SDS011;7461;52.440;13.540;2024-01-15T17:25:51;6.13;;;4.47;;
14738;SDS011;7461;52.440;13.540;2024-01-15T17:28:36;4.90;;;4.10;;
14738;SDS011;7461;52.440;13.540;2024-01-15T17:31:07;4.72;;;4.07;;
14738;SDS011;7461;52.440;13.540;2024-01-15T17:33:58;9.55;;;6.65;;
14738;SDS011;7461;52.440;13.540;2024-01-15T17:36:25;9.20;;;6.13;;
14738;SDS011;7461;52.440;13.540;2024-01-15T17:39:08;9.07;;;5.18;;
14738;SDS011;7461;52.440;13.540;2024-01-15T17:41:39;7.50;;;5.38;;
14738;SDS011;7461;52.440;13.540;2024-01-15T17:44:11;8.85;;;6.93;;
14738;SDS011;7461;52.440;13.540;2024-01-15T17:46:39;9.13;;;6.43;;
14738;SDS011;7461;52.440;13.540;2024-01-15T17:49:34;9.32;;;4.93;;
14738;SDS011;7461;52.440;13.540;2024-01-15T17:52:18;9.27;;;5.55;;
14738;SDS011;7461;52.440;13.540;2024-01-15T17:55:09;6.88;;;5.00;;
14738;SDS011;7461;52.440;13.540;2024-01-15T17:57:40;6.28;;;4.30;;
14738;SDS011;7461;52.440;13.540;2024-01-15T18:03:30;8.73;;;5.97;;
14738;SDS011;7461;52.440;13.540;2024-01-15T18:38:24;11.23;;;5.57;;
14738;SDS011;7461;52.440;13.540;2024-01-15T18:40:53;6.80;;;6.20;;
14738;SDS011;7461;52.440;13.540;2024-01-15T18:43:21;7.95;;;6.57;;
14738;SDS011;7461;52.440;13.540;2024-01-15T18:46:03;8.75;;;5.95;;
14738;SDS011;7461;52.440;13.540;2024-01-15T18:48:37;6.85;;;5.85;;
14738;SDS011;7461;52.440;13.540;2024-01-15T18:51:04;6.85;;;6.32;;
14738;SDS011;7461;52.440;13.540;2024-01-15T18:53:36;7.57;;;6.88;;
14738;SDS011;7461;52.440;13.540;2024-01-15T18:56:14;8.30;;;7.55;;
14738;SDS011;7461;52.440;13.540;2024-01-15T18:58:42;9.18;;;7.85;;
14738;SDS011;7461;52.440;13.540;2024-01-15T19:01:10;9.45;;;8.13;;
14738;SDS011;7461;52.440;13.540;2024-01-15T19:03:40;8.25;;;7.40;;
14738;SDS011;7461;52.440;13.540;2024-01-15T19:06:12;6.57;;;6.07;;
14738;SDS011;7461;52.440;13.540;2024-01-15T19:11:57;6.85;;;5.10;;
14738;SDS011;7461;52.440;13.540;2024-01-15T19:15:22;6.47;;;5.82;;
14738;SDS011;7461;52.440;13.540;2024-01-15T19:27:00;7.00;;;5.97;;
14738;SDS011;7461;52.440;13.540;2024-01-15T19:29:46;5.47;;;4.05;;
14738;SDS011;7461;52.440;13.540;2024-01-15T19:32:56;4.72;;;3.30;;
14738;SDS011;7461;52.440;13.540;2024-01-15T20:27:44;3.15;;;2.85;;
14738;SDS011;7461;52.440;13.540;2024-01-15T20:30:33;3.13;;;2.83;;
14738;SDS011;7461;52.440;13.540;2024-01-15T20:33:15;5.05;;;3.47;;
14738;SDS011;7461;52.440;13.540;2024-01-15T20:36:00;6.13;;;3.42;;
14738;SDS011;7461;52.440;13.540;2024-01-15T20:38:44;2.75;;;2.55;;
14738;SDS011;7461;52.440;13.540;2024-01-15T20:41:40;6.70;;;3.53;;
14738;SDS011;7461;52.440;13.540;2024-01-15T20:44:30;3.40;;;2.30;;
14738;SDS011;7461;52.440;13.540;2024-01-15T20:47:15;8.68;;;3.10;;
14738;SDS011;7461;52.440;13.540;2024-01-15T20:49:56;4.47;;;2.03;;
14738;SDS011;7461;52.440;13.540;2024-01-15T20:52:37;4.03;;;3.05;;
14738;SDS011;7461;52.440;13.540;2024-01-15T20:55:22;3.42;;;3.15;;
14738;SDS011;7461;52.440;13.540;2024-01-15T20:58:09;4.43;;;2.83;;
14738;SDS011;7461;52.440;13.540;2024-01-15T21:01:05;5.47;;;3.38;;
14738;SDS011;7461;52.440;13.540;2024-01-15T21:03:49;4.60;;;3.58;;
14738;SDS011;7461;52.440;13.540;2024-01-15T21:06:30;3.85;;;3.35;;
14738;SDS011;7461;52.440;13.540;2024-01-15T21:09:44;8.60;;;5.07;;
14738;SDS011;7461;52.440;13.540;2024-01-15T21:12:41;6.20;;;4.22;;
14738;SDS011;7461;52.440;13.540;2024-01-15T21:15:15;4.13;;;3.65;;
14738;SDS011;7461;52.440;13.540;2024-01-15T21:17:57;4.57;;;4.15;;
14738;SDS011;7461;52.440;13.540;2024-01-15T21:20:49;8.35;;;4.85;;
14738;SDS011;7461;52.440;13.540;2024-01-15T21:23:34;5.80;;;2.88;;
14738;SDS011;7461;52.440;13.540;2024-01-15T21:26:13;10.45;;;4.05;;
14738;SDS011;7461;52.440;13.540;2024-01-15T21:28:43;5.88;;;3.90;;
14738;SDS011;7461;52.440;13.540;2024-01-15T21:31:17;7.28;;;6.70;;
14738;SDS011;7461;52.440;13.540;2024-01-15T21:40:08;10.13;;;6.93;;
14738;SDS011;7461;52.440;13.540;2024-01-15T21:42:59;6.60;;;3.58;;
14738;SDS011;7461;52.440;13.540;2024-01-15T21:45:56;3.15;;;2.92;;
14738;SDS011;7461;52.440;13.540;2024-01-15T21:48:40;4.45;;;2.78;;
14738;SDS011;7461;52.440;13.540;2024-01-15T21:51:26;4.55;;;2.42;;
14738;SDS011;7461;52.440;13.540;2024-01-15T21:53:53;3.55;;;2.65;;
14738;SDS011;7461;52.440;13.540;2024-01-15T21:56:22;5.72;;;2.35;;
14738;SDS011;7461;52.440;13.540;2024-01-15T21:59:07;3.05;;;2.75;;
14738;SDS011;7461;52.440;13.540;2024-01-15T22:01:34;4.22;;;2.95;;
14738;SDS011;7461;52.440;13.540;2024-01-15T22:04:02;8.88;;;3.70;;
14738;SDS011;7461;52.440;13.540;2024-01-15T22:06:29;4.90;;;3.30;;
14738;SDS011;7461;52.440;13.540;2024-01-15T22:09:00;6.65;;;3.55;;
14738;SDS011;7461;52.440;13.540;2024-01-15T22:11:29;3.72;;;2.80;;
14738;SDS011;7461;52.440;13.540;2024-01-15T22:14:06;7.35;;;3.17;;
14738;SDS011;7461;52.440;13.540;2024-01-15T22:16:37;3.72;;;3.05;;
14738;SDS011;7461;52.440;13.540;2024-01-15T22:19:04;3.85;;;3.53;;
14738;SDS011;7461;52.440;13.540;2024-01-15T22:21:43;3.28;;;2.97;;
14738;SDS011;7461;52.440;13.540;2024-01-15T22:24:32;3.75;;;2.15;;
14738;SDS011;7461;52.440;13.540;2024-01-15T22:27:15;6.80;;;3.17;;
14738;SDS011;7461;52.440;13.540;2024-01-15T22:29:43;6.60;;;3.53;;
14738;SDS011;7461;52.440;13.540;2024-01-15T22:32:12;4.53;;;2.38;;
14738;SDS011;7461;52.440;13.540;2024-01-15T22:34:40;4.07;;;2.95;;
14738;SDS011;7461;52.440;13.540;2024-01-15T22:37:10;3.97;;;3.67;;
14738;SDS011;7461;52.440;13.540;2024-01-15T22:39:39;4.70;;;3.38;;
14738;SDS011;7461;52.440;13.540;2024-01-15T22:42:12;6.55;;;3.80;;
14738;SDS011;7461;52.440;13.540;2024-01-15T22:44:42;8.20;;;3.58;;
14738;SDS011;7461;52.440;13.540;2024-01-15T22:47:09;6.65;;;4.03;;
14738;SDS011;7461;52.440;13.540;2024-01-15T22:49:38;3.75;;;2.92;;
14738;SDS011;7461;52.440;13.540;2024-01-15T22:52:07;7.13;;;3.15;;
14738;SDS011;7461;52.440;13.540;2024-01-15T22:54:36;5.35;;;3.60;;
14738;SDS011;7461;52.440;13.540;2024-01-15T22:57:08;4.85;;;3.20;;
14738;SDS011;7461;52.440;13.540;2024-01-15T22:59:42;4.78;;;3.45;;
14738;SDS011;7461;52.440;13.540;2024-01-15T23:02:10;4.15;;;2.67;;
14738;SDS011;7461;52.440;13.540;2024-01-15T23:04:41;2.90;;;2.65;;
14738;SDS011;7461;52.440;13.540;2024-01-15T23:07:11;4.68;;;3.17;;
14738;SDS011;7461;52.440;13.540;2024-01-15T23:09:43;3.38;;;3.15;;
14738;SDS011;7461;52.440;13.540;2024-01-15T23:12:20;4.97;;;3.83;;
14738;SDS011;7461;52.440;13.540;2024-01-15T23:14:49;6.65;;;2.88;;
14738;SDS011;7461;52.440;13.540;2024-01-15T23:17:17;8.48;;;3.42;;
14738;SDS011;7461;52.440;13.540;2024-01-15T23:19:48;3.13;;;2.67;;
14738;SDS011;7461;52.440;13.540;2024-01-15T23:22:19;4.53;;;2.97;;
14738;SDS011;7461;52.440;13.540;2024-01-15T23:24:50;7.13;;;4.05;;
14738;SDS011;7461;52.440;13.540;2024-01-15T23:27:17;3.40;;;3.05;;
14738;SDS011;7461;52.440;13.540;2024-01-15T23:29:44;5.60;;;3.78;;
14738;SDS011;7461;52.440;13.540;2024-01-15T23:32:14;3.65;;;2.72;;
14738;SDS011;7461;52.440;13.540;2024-01-15T23:34:41;4.22;;;2.30;;
14738;SDS011;7461;52.440;13.540;2024-01-15T23:37:09;2.78;;;2.50;;
14738;SDS011;7461;52.440;13.540;2024-01-15T23:39:38;3.70;;;2.70;;
14738;SDS011;7461;52.440;13.540;2024-01-15T23:42:17;3.10;;;2.80;;
14738;SDS011;7461;52.440;13.540;2024-01-15T23:44:49;4.90;;;2.20;;
14738;SDS011;7461;52.440;13.540;2024-01-15T23:47:23;2.75;;;2.55;;
14738;SDS011;7461;52.440;13.540;2024-01-15T23:49:51;2.60;;;2.30;;
14738;SDS011;7461;52.440;13.540;2024-01-15T23:52:21;7.28;;;2.83;;
14738;SDS011;7461;52.440;13.540;2024-01-15T23:54:48;5.38;;;3.40;;
14738;SDS011;7461;52.440;13.540;2024-01-15T23:57:20;5.80;;;4.40;;
14738;SDS011;7461;52.440;13.540;2024-01-15T23:59:51;2.55;;;1.80;;
